Flagstaff (FLG/KFLG)

Map

Destinations

Information

Location
Flagstaff, AZ
Local Time
12:56 / 12:56 pm
GMT Time
19:56 / 7:56 pm
Gates
1
No FAA reported delays
METAR KFLG 281857Z 25013G21KT 10SM CLR 10/M14 A2979 RMK AO2 SLP018 T01001139
TAF KFLG 281741Z 2818/2918 30022G32KT P6SM FEW070 BKN090 FM290200 01014KT P6SM SCT080